sensor_id;sensor_type;location;lat;lon;timestamp;temperature;humidity
1391;DHT22;690;51.454;7.194;2022-08-19T00:01:20;21.50;95.20
1391;DHT22;690;51.454;7.194;2022-08-19T00:03:48;21.50;99.90
1391;DHT22;690;51.454;7.194;2022-08-19T00:06:15;21.40;99.90
1391;DHT22;690;51.454;7.194;2022-08-19T00:08:42;21.40;99.90
1391;DHT22;690;51.454;7.194;2022-08-19T00:11:11;21.30;99.90
1391;DHT22;690;51.454;7.194;2022-08-19T00:13:38;21.30;99.90
1391;DHT22;690;51.454;7.194;2022-08-19T00:16:05;21.30;99.90
1391;DHT22;690;51.454;7.194;2022-08-19T00:18:33;21.20;99.90
1391;DHT22;690;51.454;7.194;2022-08-19T00:21:00;21.30;99.90
1391;DHT22;690;51.454;7.194;2022-08-19T00:23:27;21.30;99.90
1391;DHT22;690;51.454;7.194;2022-08-19T00:25:55;21.20;99.90
1391;DHT22;690;51.454;7.194;2022-08-19T00:28:23;21.20;1.00
1391;DHT22;690;51.454;7.194;2022-08-19T00:30:50;21.20;1.00
1391;DHT22;690;51.454;7.194;2022-08-19T00:33:18;21.20;1.00
1391;DHT22;690;51.454;7.194;2022-08-19T00:35:45;21.20;1.00
1391;DHT22;690;51.454;7.194;2022-08-19T00:38:13;21.20;1.00
1391;DHT22;690;51.454;7.194;2022-08-19T00:40:42;21.10;1.00
1391;DHT22;690;51.454;7.194;2022-08-19T00:43:12;21.10;1.00
1391;DHT22;690;51.454;7.194;2022-08-19T00:45:41;21.00;1.00
1391;DHT22;690;51.454;7.194;2022-08-19T00:48:09;21.00;1.00
1391;DHT22;690;51.454;7.194;2022-08-19T00:50:39;21.00;1.00
1391;DHT22;690;51.454;7.194;2022-08-19T00:53:10;20.90;1.00
1391;DHT22;690;51.454;7.194;2022-08-19T00:55:38;20.90;1.00
1391;DHT22;690;51.454;7.194;2022-08-19T00:58:08;20.90;1.00
1391;DHT22;690;51.454;7.194;2022-08-19T01:00:37;20.80;1.00
1391;DHT22;690;51.454;7.194;2022-08-19T01:03:08;20.80;1.00
1391;DHT22;690;51.454;7.194;2022-08-19T01:05:35;20.80;1.00
1391;DHT22;690;51.454;7.194;2022-08-19T01:08:04;20.80;44.50
1391;DHT22;690;51.454;7.194;2022-08-19T01:10:37;20.80;83.20
1391;DHT22;690;51.454;7.194;2022-08-19T01:13:05;20.70;99.90
1391;DHT22;690;51.454;7.194;2022-08-19T01:15:35;20.70;99.90
1391;DHT22;690;51.454;7.194;2022-08-19T01:18:08;20.70;99.90
1391;DHT22;690;51.454;7.194;2022-08-19T01:20:36;20.70;99.90
1391;DHT22;690;51.454;7.194;2022-08-19T01:23:04;20.60;99.90
1391;DHT22;690;51.454;7.194;2022-08-19T01:25:34;20.60;99.90
1391;DHT22;690;51.454;7.194;2022-08-19T01:28:02;20.60;99.90
1391;DHT22;690;51.454;7.194;2022-08-19T01:30:32;20.50;99.90
1391;DHT22;690;51.454;7.194;2022-08-19T01:32:59;20.50;99.90
1391;DHT22;690;51.454;7.194;2022-08-19T01:35:29;20.50;1.00
1391;DHT22;690;51.454;7.194;2022-08-19T01:37:59;20.50;1.00
1391;DHT22;690;51.454;7.194;2022-08-19T01:40:29;20.50;1.00
1391;DHT22;690;51.454;7.194;2022-08-19T01:42:57;20.50;1.00
1391;DHT22;690;51.454;7.194;2022-08-19T01:45:26;20.50;1.00
1391;DHT22;690;51.454;7.194;2022-08-19T01:47:54;20.50;1.00
1391;DHT22;690;51.454;7.194;2022-08-19T01:50:21;20.40;1.00
1391;DHT22;690;51.454;7.194;2022-08-19T01:52:48;20.50;56.80
1391;DHT22;690;51.454;7.194;2022-08-19T01:55:19;20.50;94.50
1391;DHT22;690;51.454;7.194;2022-08-19T01:57:54;20.50;63.30
1391;DHT22;690;51.454;7.194;2022-08-19T02:00:25;20.50;27.50
1391;DHT22;690;51.454;7.194;2022-08-19T02:02:52;20.40;24.10
1391;DHT22;690;51.454;7.194;2022-08-19T02:05:20;20.40;56.30
1391;DHT22;690;51.454;7.194;2022-08-19T02:07:47;20.40;26.30
1391;DHT22;690;51.454;7.194;2022-08-19T02:10:16;20.40;84.60
1391;DHT22;690;51.454;7.194;2022-08-19T02:12:44;20.40;99.90
1391;DHT22;690;51.454;7.194;2022-08-19T02:15:13;20.30;99.90
1391;DHT22;690;51.454;7.194;2022-08-19T02:17:40;20.30;99.90
1391;DHT22;690;51.454;7.194;2022-08-19T02:20:09;20.30;99.90
1391;DHT22;690;51.454;7.194;2022-08-19T02:22:36;20.30;99.90
1391;DHT22;690;51.454;7.194;2022-08-19T02:25:03;20.30;99.90
1391;DHT22;690;51.454;7.194;2022-08-19T02:27:31;20.20;99.90
1391;DHT22;690;51.454;7.194;2022-08-19T02:29:59;20.30;99.90
1391;DHT22;690;51.454;7.194;2022-08-19T02:32:27;20.20;99.90
1391;DHT22;690;51.454;7.194;2022-08-19T02:34:56;20.20;1.00
1391;DHT22;690;51.454;7.194;2022-08-19T02:37:23;20.20;1.00
1391;DHT22;690;51.454;7.194;2022-08-19T02:40:10;20.20;1.00
1391;DHT22;690;51.454;7.194;2022-08-19T02:42:37;20.20;1.00
1391;DHT22;690;51.454;7.194;2022-08-19T02:45:06;20.20;1.00
1391;DHT22;690;51.454;7.194;2022-08-19T02:47:35;20.20;1.00
1391;DHT22;690;51.454;7.194;2022-08-19T02:50:03;20.20;1.00
1391;DHT22;690;51.454;7.194;2022-08-19T02:52:32;20.20;1.00
1391;DHT22;690;51.454;7.194;2022-08-19T02:54:59;20.20;1.00
1391;DHT22;690;51.454;7.194;2022-08-19T02:57:26;20.20;43.00
1391;DHT22;690;51.454;7.194;2022-08-19T02:59:54;20.20;45.40
1391;DHT22;690;51.454;7.194;2022-08-19T03:02:21;20.20;15.30
1391;DHT22;690;51.454;7.194;2022-08-19T03:04:49;20.20;7.70
1391;DHT22;690;51.454;7.194;2022-08-19T03:07:17;20.20;1.00
1391;DHT22;690;51.454;7.194;2022-08-19T03:09:44;20.20;1.00
1391;DHT22;690;51.454;7.194;2022-08-19T03:12:11;20.20;1.00
1391;DHT22;690;51.454;7.194;2022-08-19T03:14:38;20.10;1.00
1391;DHT22;690;51.454;7.194;2022-08-19T03:17:05;20.10;1.00
1391;DHT22;690;51.454;7.194;2022-08-19T03:19:33;20.10;1.00
1391;DHT22;690;51.454;7.194;2022-08-19T03:22:02;20.10;1.00
1391;DHT22;690;51.454;7.194;2022-08-19T03:24:30;20.10;53.80
1391;DHT22;690;51.454;7.194;2022-08-19T03:26:58;20.00;91.40
1391;DHT22;690;51.454;7.194;2022-08-19T03:29:26;20.00;72.20
1391;DHT22;690;51.454;7.194;2022-08-19T03:31:53;20.00;95.90
1391;DHT22;690;51.454;7.194;2022-08-19T03:34:22;20.00;29.50
1391;DHT22;690;51.454;7.194;2022-08-19T03:36:51;19.90;33.50
1391;DHT22;690;51.454;7.194;2022-08-19T03:39:21;19.90;76.90
1391;DHT22;690;51.454;7.194;2022-08-19T03:41:48;19.90;99.90
1391;DHT22;690;51.454;7.194;2022-08-19T03:44:18;19.80;99.90
1391;DHT22;690;51.454;7.194;2022-08-19T03:46:47;19.80;99.90
1391;DHT22;690;51.454;7.194;2022-08-19T03:49:15;19.80;1.00
1391;DHT22;690;51.454;7.194;2022-08-19T03:51:42;19.80;1.00
1391;DHT22;690;51.454;7.194;2022-08-19T03:54:11;19.80;1.00
1391;DHT22;690;51.454;7.194;2022-08-19T03:56:41;19.80;1.00
1391;DHT22;690;51.454;7.194;2022-08-19T03:59:15;19.80;1.00
1391;DHT22;690;51.454;7.194;2022-08-19T04:01:42;19.80;27.20
1391;DHT22;690;51.454;7.194;2022-08-19T04:04:10;19.80;99.90
1391;DHT22;690;51.454;7.194;2022-08-19T04:06:38;19.80;99.90
1391;DHT22;690;51.454;7.194;2022-08-19T04:09:07;19.70;99.90
1391;DHT22;690;51.454;7.194;2022-08-19T04:11:37;19.80;99.90
1391;DHT22;690;51.454;7.194;2022-08-19T04:14:09;19.70;99.90
1391;DHT22;690;51.454;7.194;2022-08-19T04:16:37;19.70;99.90
1391;DHT22;690;51.454;7.194;2022-08-19T04:19:04;19.70;99.90
1391;DHT22;690;51.454;7.194;2022-08-19T04:21:32;19.70;99.90
1391;DHT22;690;51.454;7.194;2022-08-19T04:23:59;19.70;99.90
1391;DHT22;690;51.454;7.194;2022-08-19T04:26:29;19.70;1.00
1391;DHT22;690;51.454;7.194;2022-08-19T04:28:57;19.70;1.00
1391;DHT22;690;51.454;7.194;2022-08-19T04:31:28;19.70;1.00
1391;DHT22;690;51.454;7.194;2022-08-19T04:33:57;19.80;1.00
1391;DHT22;690;51.454;7.194;2022-08-19T04:36:26;19.70;1.00
1391;DHT22;690;51.454;7.194;2022-08-19T04:38:55;19.80;1.00
1391;DHT22;690;51.454;7.194;2022-08-19T04:41:22;19.80;1.00
1391;DHT22;690;51.454;7.194;2022-08-19T04:44:07;19.80;1.00
1391;DHT22;690;51.454;7.194;2022-08-19T04:46:36;19.90;1.00
1391;DHT22;690;51.454;7.194;2022-08-19T04:49:04;19.90;1.00
1391;DHT22;690;51.454;7.194;2022-08-19T04:51:32;19.90;1.00
1391;DHT22;690;51.454;7.194;2022-08-19T04:54:01;20.00;1.00
1391;DHT22;690;51.454;7.194;2022-08-19T04:56:28;20.00;1.00
1391;DHT22;690;51.454;7.194;2022-08-19T04:58:56;20.00;1.00
1391;DHT22;690;51.454;7.194;2022-08-19T05:01:27;20.00;1.00
1391;DHT22;690;51.454;7.194;2022-08-19T05:03:57;20.10;1.00
1391;DHT22;690;51.454;7.194;2022-08-19T05:06:24;20.10;1.00
1391;DHT22;690;51.454;7.194;2022-08-19T05:08:51;20.10;1.00
1391;DHT22;690;51.454;7.194;2022-08-19T05:11:20;20.20;1.00
1391;DHT22;690;51.454;7.194;2022-08-19T05:13:48;20.20;1.00
1391;DHT22;690;51.454;7.194;2022-08-19T05:16:16;20.20;1.00
1391;DHT22;690;51.454;7.194;2022-08-19T05:18:44;20.20;1.00
1391;DHT22;690;51.454;7.194;2022-08-19T05:21:30;20.30;1.00
1391;DHT22;690;51.454;7.194;2022-08-19T05:24:16;20.40;1.00
1391;DHT22;690;51.454;7.194;2022-08-19T05:26:45;20.40;1.00
1391;DHT22;690;51.454;7.194;2022-08-19T05:29:13;20.40;1.00
1391;DHT22;690;51.454;7.194;2022-08-19T05:31:41;20.40;1.00
1391;DHT22;690;51.454;7.194;2022-08-19T05:34:08;20.40;1.00
1391;DHT22;690;51.454;7.194;2022-08-19T05:36:39;20.50;1.00
1391;DHT22;690;51.454;7.194;2022-08-19T05:39:07;20.50;1.00
1391;DHT22;690;51.454;7.194;2022-08-19T05:41:34;20.60;1.00
1391;DHT22;690;51.454;7.194;2022-08-19T05:44:04;20.70;1.00
1391;DHT22;690;51.454;7.194;2022-08-19T05:46:35;20.70;1.00
1391;DHT22;690;51.454;7.194;2022-08-19T05:49:02;20.70;1.00
1391;DHT22;690;51.454;7.194;2022-08-19T05:51:31;20.80;99.90
1391;DHT22;690;51.454;7.194;2022-08-19T05:54:02;20.80;1.00
1391;DHT22;690;51.454;7.194;2022-08-19T05:56:31;20.90;1.00
1391;DHT22;690;51.454;7.194;2022-08-19T05:58:58;21.00;99.90
1391;DHT22;690;51.454;7.194;2022-08-19T06:01:26;21.00;99.90
1391;DHT22;690;51.454;7.194;2022-08-19T06:03:53;21.20;99.90
1391;DHT22;690;51.454;7.194;2022-08-19T06:06:21;21.30;99.90
1391;DHT22;690;51.454;7.194;2022-08-19T06:08:48;21.40;99.90
1391;DHT22;690;51.454;7.194;2022-08-19T06:11:20;21.40;99.90
1391;DHT22;690;51.454;7.194;2022-08-19T06:13:48;21.50;1.00
1391;DHT22;690;51.454;7.194;2022-08-19T06:16:18;21.60;1.00
1391;DHT22;690;51.454;7.194;2022-08-19T06:18:48;21.60;99.90
1391;DHT22;690;51.454;7.194;2022-08-19T06:21:17;21.60;99.90
1391;DHT22;690;51.454;7.194;2022-08-19T06:23:44;21.70;99.90
1391;DHT22;690;51.454;7.194;2022-08-19T06:26:13;21.70;99.90
1391;DHT22;690;51.454;7.194;2022-08-19T06:28:42;21.80;99.90
1391;DHT22;690;51.454;7.194;2022-08-19T06:31:10;21.80;99.90
1391;DHT22;690;51.454;7.194;2022-08-19T06:33:39;21.90;1.00
1391;DHT22;690;51.454;7.194;2022-08-19T06:36:07;22.00;1.00
1391;DHT22;690;51.454;7.194;2022-08-19T06:38:34;22.00;1.00
1391;DHT22;690;51.454;7.194;2022-08-19T06:41:02;22.10;99.90
1391;DHT22;690;51.454;7.194;2022-08-19T06:43:29;22.10;99.90
1391;DHT22;690;51.454;7.194;2022-08-19T06:45:58;22.10;99.90
1391;DHT22;690;51.454;7.194;2022-08-19T06:48:26;22.20;99.90
1391;DHT22;690;51.454;7.194;2022-08-19T06:50:53;22.20;99.90
1391;DHT22;690;51.454;7.194;2022-08-19T06:53:21;22.30;99.90
1391;DHT22;690;51.454;7.194;2022-08-19T06:55:48;22.30;1.00
1391;DHT22;690;51.454;7.194;2022-08-19T06:58:28;22.40;1.00
1391;DHT22;690;51.454;7.194;2022-08-19T07:00:59;22.40;1.00
1391;DHT22;690;51.454;7.194;2022-08-19T07:03:29;22.40;1.00
1391;DHT22;690;51.454;7.194;2022-08-19T07:05:58;22.50;1.00
1391;DHT22;690;51.454;7.194;2022-08-19T07:08:29;22.60;1.00
1391;DHT22;690;51.454;7.194;2022-08-19T07:10:55;22.60;99.90
1391;DHT22;690;51.454;7.194;2022-08-19T07:13:22;22.70;99.90
1391;DHT22;690;51.454;7.194;2022-08-19T07:15:49;22.80;99.90
1391;DHT22;690;51.454;7.194;2022-08-19T07:18:19;22.80;1.00
1391;DHT22;690;51.454;7.194;2022-08-19T07:20:47;22.80;1.00
1391;DHT22;690;51.454;7.194;2022-08-19T07:23:14;22.80;1.00
1391;DHT22;690;51.454;7.194;2022-08-19T07:25:41;22.80;1.00
1391;DHT22;690;51.454;7.194;2022-08-19T07:28:08;22.90;1.00
1391;DHT22;690;51.454;7.194;2022-08-19T07:30:38;22.90;1.00
1391;DHT22;690;51.454;7.194;2022-08-19T07:33:06;23.00;1.00
1391;DHT22;690;51.454;7.194;2022-08-19T07:35:35;23.00;1.00
1391;DHT22;690;51.454;7.194;2022-08-19T07:38:02;23.00;1.00
1391;DHT22;690;51.454;7.194;2022-08-19T07:40:30;23.00;1.00
1391;DHT22;690;51.454;7.194;2022-08-19T07:42:57;23.10;1.00
1391;DHT22;690;51.454;7.194;2022-08-19T07:45:24;23.20;1.00
1391;DHT22;690;51.454;7.194;2022-08-19T07:47:54;23.20;1.00
1391;DHT22;690;51.454;7.194;2022-08-19T07:50:21;23.30;1.00
1391;DHT22;690;51.454;7.194;2022-08-19T07:52:50;23.40;1.00
1391;DHT22;690;51.454;7.194;2022-08-19T07:55:21;23.40;99.90
1391;DHT22;690;51.454;7.194;2022-08-19T07:57:48;23.60;99.90
1391;DHT22;690;51.454;7.194;2022-08-19T08:00:15;23.60;99.90
1391;DHT22;690;51.454;7.194;2022-08-19T08:02:42;23.70;99.90
1391;DHT22;690;51.454;7.194;2022-08-19T08:05:09;23.70;99.90
1391;DHT22;690;51.454;7.194;2022-08-19T08:07:55;23.80;99.90
1391;DHT22;690;51.454;7.194;2022-08-19T08:10:40;23.90;99.90
1391;DHT22;690;51.454;7.194;2022-08-19T08:13:07;23.90;99.90
1391;DHT22;690;51.454;7.194;2022-08-19T08:15:34;24.00;99.90
1391;DHT22;690;51.454;7.194;2022-08-19T08:18:02;24.10;84.40
1391;DHT22;690;51.454;7.194;2022-08-19T08:20:29;24.20;69.00
1391;DHT22;690;51.454;7.194;2022-08-19T08:22:58;24.30;55.00
1391;DHT22;690;51.454;7.194;2022-08-19T08:25:43;24.40;11.20
1391;DHT22;690;51.454;7.194;2022-08-19T08:28:10;24.50;1.00
1391;DHT22;690;51.454;7.194;2022-08-19T08:30:37;24.60;1.00
1391;DHT22;690;51.454;7.194;2022-08-19T08:33:07;24.70;1.00
1391;DHT22;690;51.454;7.194;2022-08-19T08:35:34;24.80;1.00
1391;DHT22;690;51.454;7.194;2022-08-19T08:38:02;24.90;1.00
1391;DHT22;690;51.454;7.194;2022-08-19T08:40:38;25.00;1.00
1391;DHT22;690;51.454;7.194;2022-08-19T08:43:20;25.10;1.00
1391;DHT22;690;51.454;7.194;2022-08-19T08:45:55;25.20;1.00
1391;DHT22;690;51.454;7.194;2022-08-19T08:48:29;25.40;1.00
1391;DHT22;690;51.454;7.194;2022-08-19T08:50:59;25.50;1.00
1391;DHT22;690;51.454;7.194;2022-08-19T08:53:30;25.70;1.00
1391;DHT22;690;51.454;7.194;2022-08-19T08:55:58;25.70;1.00
1391;DHT22;690;51.454;7.194;2022-08-19T08:58:31;25.70;1.00
1391;DHT22;690;51.454;7.194;2022-08-19T09:00:58;25.70;1.00
1391;DHT22;690;51.454;7.194;2022-08-19T09:03:27;25.70;1.00
1391;DHT22;690;51.454;7.194;2022-08-19T09:05:59;25.80;1.00
1391;DHT22;690;51.454;7.194;2022-08-19T09:08:36;25.90;1.00
1391;DHT22;690;51.454;7.194;2022-08-19T09:11:08;26.10;1.00
1391;DHT22;690;51.454;7.194;2022-08-19T09:13:44;26.30;1.00
1391;DHT22;690;51.454;7.194;2022-08-19T09:16:15;26.30;1.00
1391;DHT22;690;51.454;7.194;2022-08-19T09:18:45;26.30;1.00
1391;DHT22;690;51.454;7.194;2022-08-19T09:21:14;26.30;1.00
1391;DHT22;690;51.454;7.194;2022-08-19T09:23:42;26.50;1.00
1391;DHT22;690;51.454;7.194;2022-08-19T09:26:10;26.60;1.00
1391;DHT22;690;51.454;7.194;2022-08-19T09:28:39;26.70;99.90
1391;DHT22;690;51.454;7.194;2022-08-19T09:31:07;26.90;99.90
1391;DHT22;690;51.454;7.194;2022-08-19T09:33:34;26.80;99.90
1391;DHT22;690;51.454;7.194;2022-08-19T09:36:03;26.80;99.90
1391;DHT22;690;51.454;7.194;2022-08-19T09:38:31;26.60;99.90
1391;DHT22;690;51.454;7.194;2022-08-19T09:41:04;26.60;99.90
1391;DHT22;690;51.454;7.194;2022-08-19T09:43:31;26.60;99.90
1391;DHT22;690;51.454;7.194;2022-08-19T09:45:59;26.60;99.90
1391;DHT22;690;51.454;7.194;2022-08-19T09:48:26;26.50;99.90
1391;DHT22;690;51.454;7.194;2022-08-19T09:50:53;26.60;99.90
1391;DHT22;690;51.454;7.194;2022-08-19T09:53:20;26.60;99.90
1391;DHT22;690;51.454;7.194;2022-08-19T09:55:48;26.60;99.90
1391;DHT22;690;51.454;7.194;2022-08-19T09:58:17;26.60;99.90
1391;DHT22;690;51.454;7.194;2022-08-19T10:00:44;26.70;99.90
1391;DHT22;690;51.454;7.194;2022-08-19T10:03:12;26.80;99.90
1391;DHT22;690;51.454;7.194;2022-08-19T10:05:39;27.00;99.90
1391;DHT22;690;51.454;7.194;2022-08-19T10:08:16;27.10;99.90
1391;DHT22;690;51.454;7.194;2022-08-19T10:10:44;27.10;99.90
1391;DHT22;690;51.454;7.194;2022-08-19T10:13:12;27.10;99.90
1391;DHT22;690;51.454;7.194;2022-08-19T10:15:41;27.00;99.90
1391;DHT22;690;51.454;7.194;2022-08-19T10:18:08;27.00;99.90
1391;DHT22;690;51.454;7.194;2022-08-19T10:20:35;27.00;99.90
1391;DHT22;690;51.454;7.194;2022-08-19T10:23:02;27.00;99.90
1391;DHT22;690;51.454;7.194;2022-08-19T10:25:29;27.00;99.90
1391;DHT22;690;51.454;7.194;2022-08-19T10:27:59;27.00;99.90
1391;DHT22;690;51.454;7.194;2022-08-19T10:30:26;26.90;99.90
1391;DHT22;690;51.454;7.194;2022-08-19T10:32:54;26.90;99.90
1391;DHT22;690;51.454;7.194;2022-08-19T10:35:21;26.90;99.90
1391;DHT22;690;51.454;7.194;2022-08-19T10:37:49;27.00;99.90
1391;DHT22;690;51.454;7.194;2022-08-19T10:40:16;27.10;99.90
1391;DHT22;690;51.454;7.194;2022-08-19T10:42:43;27.20;99.90
1391;DHT22;690;51.454;7.194;2022-08-19T10:45:10;27.30;99.90
1391;DHT22;690;51.454;7.194;2022-08-19T10:47:37;27.50;99.90
1391;DHT22;690;51.454;7.194;2022-08-19T10:50:07;27.60;99.90
1391;DHT22;690;51.454;7.194;2022-08-19T10:52:52;27.70;99.90
1391;DHT22;690;51.454;7.194;2022-08-19T10:55:21;27.70;99.90
1391;DHT22;690;51.454;7.194;2022-08-19T10:58:11;27.70;99.90
1391;DHT22;690;51.454;7.194;2022-08-19T11:00:38;27.70;99.90
1391;DHT22;690;51.454;7.194;2022-08-19T11:03:06;27.70;99.90
1391;DHT22;690;51.454;7.194;2022-08-19T11:05:34;27.80;99.90
1391;DHT22;690;51.454;7.194;2022-08-19T11:08:03;27.80;99.90
1391;DHT22;690;51.454;7.194;2022-08-19T11:10:31;27.90;99.90
1391;DHT22;690;51.454;7.194;2022-08-19T11:12:58;28.00;99.90
1391;DHT22;690;51.454;7.194;2022-08-19T11:15:26;28.00;99.90
1391;DHT22;690;51.454;7.194;2022-08-19T11:17:54;28.00;99.90
1391;DHT22;690;51.454;7.194;2022-08-19T11:20:21;28.00;99.90
1391;DHT22;690;51.454;7.194;2022-08-19T11:22:51;28.00;99.90
1391;DHT22;690;51.454;7.194;2022-08-19T11:25:19;27.90;99.90
1391;DHT22;690;51.454;7.194;2022-08-19T11:27:47;27.90;99.90
1391;DHT22;690;51.454;7.194;2022-08-19T11:30:16;27.90;99.90
1391;DHT22;690;51.454;7.194;2022-08-19T11:32:43;27.90;99.90
1391;DHT22;690;51.454;7.194;2022-08-19T11:35:10;27.90;99.90
1391;DHT22;690;51.454;7.194;2022-08-19T11:37:37;27.90;99.90
1391;DHT22;690;51.454;7.194;2022-08-19T11:40:07;27.90;99.90
1391;DHT22;690;51.454;7.194;2022-08-19T11:42:34;27.80;99.90
1391;DHT22;690;51.454;7.194;2022-08-19T11:45:19;27.80;99.90
1391;DHT22;690;51.454;7.194;2022-08-19T11:47:46;27.80;99.90
1391;DHT22;690;51.454;7.194;2022-08-19T11:50:13;27.80;99.90
1391;DHT22;690;51.454;7.194;2022-08-19T11:52:40;27.80;99.90
1391;DHT22;690;51.454;7.194;2022-08-19T11:55:12;27.90;99.90
1391;DHT22;690;51.454;7.194;2022-08-19T11:57:40;28.00;99.90
1391;DHT22;690;51.454;7.194;2022-08-19T12:00:10;28.10;99.90
1391;DHT22;690;51.454;7.194;2022-08-19T12:02:38;28.30;99.90
1391;DHT22;690;51.454;7.194;2022-08-19T12:05:06;28.30;99.90
1391;DHT22;690;51.454;7.194;2022-08-19T12:07:33;28.30;99.90
1391;DHT22;690;51.454;7.194;2022-08-19T12:10:00;28.10;99.90
1391;DHT22;690;51.454;7.194;2022-08-19T12:12:28;28.00;99.90
1391;DHT22;690;51.454;7.194;2022-08-19T12:14:55;27.90;99.90
1391;DHT22;690;51.454;7.194;2022-08-19T12:17:24;27.80;99.90
1391;DHT22;690;51.454;7.194;2022-08-19T12:19:52;28.00;99.90
1391;DHT22;690;51.454;7.194;2022-08-19T12:22:19;28.10;99.90
1391;DHT22;690;51.454;7.194;2022-08-19T12:24:46;28.10;99.90
1391;DHT22;690;51.454;7.194;2022-08-19T12:27:15;28.10;99.90
1391;DHT22;690;51.454;7.194;2022-08-19T12:29:44;28.10;99.90
1391;DHT22;690;51.454;7.194;2022-08-19T12:32:10;28.10;99.90
1391;DHT22;690;51.454;7.194;2022-08-19T12:34:38;28.20;99.90
1391;DHT22;690;51.454;7.194;2022-08-19T12:37:06;28.20;99.90
1391;DHT22;690;51.454;7.194;2022-08-19T12:39:35;28.30;99.90
1391;DHT22;690;51.454;7.194;2022-08-19T12:42:03;28.50;99.90
1391;DHT22;690;51.454;7.194;2022-08-19T12:44:30;28.70;99.90
1391;DHT22;690;51.454;7.194;2022-08-19T12:46:58;28.90;99.90
1391;DHT22;690;51.454;7.194;2022-08-19T12:49:27;29.10;99.90
1391;DHT22;690;51.454;7.194;2022-08-19T12:51:54;29.10;99.90
1391;DHT22;690;51.454;7.194;2022-08-19T12:54:21;29.10;99.90
1391;DHT22;690;51.454;7.194;2022-08-19T12:56:48;29.20;99.90
1391;DHT22;690;51.454;7.194;2022-08-19T12:59:15;29.20;99.90
1391;DHT22;690;51.454;7.194;2022-08-19T13:01:45;29.10;99.90
1391;DHT22;690;51.454;7.194;2022-08-19T13:04:13;29.10;99.90
1391;DHT22;690;51.454;7.194;2022-08-19T13:06:40;29.00;99.90
1391;DHT22;690;51.454;7.194;2022-08-19T13:09:07;28.90;99.90
1391;DHT22;690;51.454;7.194;2022-08-19T13:11:35;28.80;99.90
1391;DHT22;690;51.454;7.194;2022-08-19T13:14:03;28.80;99.90
1391;DHT22;690;51.454;7.194;2022-08-19T13:16:30;28.90;99.90
1391;DHT22;690;51.454;7.194;2022-08-19T13:18:58;29.10;99.90
1391;DHT22;690;51.454;7.194;2022-08-19T13:21:27;29.30;99.90
1391;DHT22;690;51.454;7.194;2022-08-19T13:23:55;29.50;99.90
1391;DHT22;690;51.454;7.194;2022-08-19T13:26:22;29.60;99.90
1391;DHT22;690;51.454;7.194;2022-08-19T13:28:50;29.70;99.90
1391;DHT22;690;51.454;7.194;2022-08-19T13:31:35;29.80;99.90
1391;DHT22;690;51.454;7.194;2022-08-19T13:34:27;30.00;99.90
1391;DHT22;690;51.454;7.194;2022-08-19T13:36:57;30.10;99.90
1391;DHT22;690;51.454;7.194;2022-08-19T13:39:24;30.10;99.90
1391;DHT22;690;51.454;7.194;2022-08-19T13:41:51;30.00;99.90
1391;DHT22;690;51.454;7.194;2022-08-19T13:44:18;29.90;99.90
1391;DHT22;690;51.454;7.194;2022-08-19T13:46:45;29.80;99.90
1391;DHT22;690;51.454;7.194;2022-08-19T13:49:14;29.70;99.90
1391;DHT22;690;51.454;7.194;2022-08-19T13:51:42;29.70;99.90
1391;DHT22;690;51.454;7.194;2022-08-19T13:54:12;29.70;99.90
1391;DHT22;690;51.454;7.194;2022-08-19T13:56:41;29.70;99.90
1391;DHT22;690;51.454;7.194;2022-08-19T13:59:08;29.90;99.90
1391;DHT22;690;51.454;7.194;2022-08-19T14:01:35;29.90;99.90
1391;DHT22;690;51.454;7.194;2022-08-19T14:04:03;29.90;99.90
1391;DHT22;690;51.454;7.194;2022-08-19T14:06:31;29.90;99.90
1391;DHT22;690;51.454;7.194;2022-08-19T14:08:58;29.90;99.90
1391;DHT22;690;51.454;7.194;2022-08-19T14:11:26;29.90;99.90
1391;DHT22;690;51.454;7.194;2022-08-19T14:13:53;30.00;99.90
1391;DHT22;690;51.454;7.194;2022-08-19T14:16:20;30.00;99.90
1391;DHT22;690;51.454;7.194;2022-08-19T14:18:47;30.00;99.90
1391;DHT22;690;51.454;7.194;2022-08-19T14:21:15;30.00;99.90
1391;DHT22;690;51.454;7.194;2022-08-19T14:23:42;29.70;99.90
1391;DHT22;690;51.454;7.194;2022-08-19T14:26:12;29.60;99.90
1391;DHT22;690;51.454;7.194;2022-08-19T14:28:41;29.50;99.90
1391;DHT22;690;51.454;7.194;2022-08-19T14:31:09;29.50;99.90
1391;DHT22;690;51.454;7.194;2022-08-19T14:33:36;29.50;99.90
1391;DHT22;690;51.454;7.194;2022-08-19T14:36:04;29.50;99.90
1391;DHT22;690;51.454;7.194;2022-08-19T14:38:31;29.70;99.90
1391;DHT22;690;51.454;7.194;2022-08-19T14:41:10;29.90;99.90
1391;DHT22;690;51.454;7.194;2022-08-19T14:43:37;30.00;99.90
1391;DHT22;690;51.454;7.194;2022-08-19T14:46:06;30.10;99.90
1391;DHT22;690;51.454;7.194;2022-08-19T14:48:35;30.10;99.90
1391;DHT22;690;51.454;7.194;2022-08-19T14:51:04;30.10;99.90
1391;DHT22;690;51.454;7.194;2022-08-19T14:53:32;30.30;99.90
1391;DHT22;690;51.454;7.194;2022-08-19T14:56:00;30.40;99.90
1391;DHT22;690;51.454;7.194;2022-08-19T14:58:27;30.50;99.90
1391;DHT22;690;51.454;7.194;2022-08-19T15:00:54;30.70;99.90
1391;DHT22;690;51.454;7.194;2022-08-19T15:03:22;30.90;99.90
1391;DHT22;690;51.454;7.194;2022-08-19T15:05:49;31.00;99.90
1391;DHT22;690;51.454;7.194;2022-08-19T15:08:16;31.00;99.90
1391;DHT22;690;51.454;7.194;2022-08-19T15:10:44;31.10;99.90
1391;DHT22;690;51.454;7.194;2022-08-19T15:13:13;31.00;99.90
1391;DHT22;690;51.454;7.194;2022-08-19T15:15:40;31.00;99.90
1391;DHT22;690;51.454;7.194;2022-08-19T15:18:07;31.10;99.90
1391;DHT22;690;51.454;7.194;2022-08-19T15:20:36;31.10;99.90
1391;DHT22;690;51.454;7.194;2022-08-19T15:23:04;31.00;99.90
1391;DHT22;690;51.454;7.194;2022-08-19T15:25:31;30.90;99.90
1391;DHT22;690;51.454;7.194;2022-08-19T15:27:59;30.80;99.90
1391;DHT22;690;51.454;7.194;2022-08-19T15:30:28;30.50;99.90
1391;DHT22;690;51.454;7.194;2022-08-19T15:32:55;30.40;99.90
1391;DHT22;690;51.454;7.194;2022-08-19T15:35:23;30.30;99.90
1391;DHT22;690;51.454;7.194;2022-08-19T15:37:52;30.40;99.90
1391;DHT22;690;51.454;7.194;2022-08-19T15:40:21;30.50;99.90
1391;DHT22;690;51.454;7.194;2022-08-19T15:42:49;30.60;99.90
1391;DHT22;690;51.454;7.194;2022-08-19T15:45:17;30.60;99.90
1391;DHT22;690;51.454;7.194;2022-08-19T15:47:44;30.80;99.90
1391;DHT22;690;51.454;7.194;2022-08-19T15:50:14;30.90;99.90
1391;DHT22;690;51.454;7.194;2022-08-19T15:52:45;30.90;99.90
1391;DHT22;690;51.454;7.194;2022-08-19T15:55:13;30.80;99.90
1391;DHT22;690;51.454;7.194;2022-08-19T15:57:40;30.60;99.90
1391;DHT22;690;51.454;7.194;2022-08-19T16:00:25;30.50;99.90
1391;DHT22;690;51.454;7.194;2022-08-19T16:03:13;30.30;99.90
1391;DHT22;690;51.454;7.194;2022-08-19T16:05:58;30.20;99.90
1391;DHT22;690;51.454;7.194;2022-08-19T16:08:42;30.20;99.90
1391;DHT22;690;51.454;7.194;2022-08-19T16:11:12;30.30;99.90
1391;DHT22;690;51.454;7.194;2022-08-19T16:13:39;30.40;99.90
1391;DHT22;690;51.454;7.194;2022-08-19T16:16:06;30.40;99.90
1391;DHT22;690;51.454;7.194;2022-08-19T16:18:33;30.40;99.90
1391;DHT22;690;51.454;7.194;2022-08-19T16:21:03;30.40;99.90
1391;DHT22;690;51.454;7.194;2022-08-19T16:23:31;30.40;99.90
1391;DHT22;690;51.454;7.194;2022-08-19T16:25:58;30.50;99.90
1391;DHT22;690;51.454;7.194;2022-08-19T16:28:26;30.70;99.90
1391;DHT22;690;51.454;7.194;2022-08-19T16:30:53;30.80;99.90
1391;DHT22;690;51.454;7.194;2022-08-19T16:33:20;31.00;99.90
1391;DHT22;690;51.454;7.194;2022-08-19T16:35:47;31.10;99.90